sensor_id;sensor_type;location;lat;lon;timestamp;temperature;humidity
28297;DHT22;62078;49.366;8.172;2022-09-02T05:31:17;25.00;51.00
28297;DHT22;62078;49.366;8.172;2022-09-02T05:33:43;22.60;52.30
28297;DHT22;62078;49.366;8.172;2022-09-02T05:36:15;22.60;52.10
28297;DHT22;62078;49.366;8.172;2022-09-02T05:38:42;22.60;52.00
28297;DHT22;62078;49.366;8.172;2022-09-02T05:41:11;22.70;51.80
28297;DHT22;62078;49.366;8.172;2022-09-02T05:43:40;22.70;51.60
28297;DHT22;62078;49.366;8.172;2022-09-02T05:46:08;22.80;51.40
28297;DHT22;62078;49.366;8.172;2022-09-02T05:48:35;22.90;51.30
28297;DHT22;62078;49.366;8.172;2022-09-02T05:51:20;22.90;51.30
28297;DHT22;62078;49.366;8.172;2022-09-02T05:53:45;23.00;51.10
28297;DHT22;62078;49.366;8.172;2022-09-02T05:56:12;23.10;51.00
28297;DHT22;62078;49.366;8.172;2022-09-02T05:58:37;23.20;50.60
28297;DHT22;62078;49.366;8.172;2022-09-02T06:01:10;23.30;50.60
28297;DHT22;62078;49.366;8.172;2022-09-02T06:03:37;23.40;50.60
28297;DHT22;62078;49.366;8.172;2022-09-02T06:06:03;23.50;50.30
28297;DHT22;62078;49.366;8.172;2022-09-02T06:08:31;23.60;49.90
28297;DHT22;62078;49.366;8.172;2022-09-02T06:10:57;23.60;49.40
28297;DHT22;62078;49.366;8.172;2022-09-02T06:13:27;23.70;49.10
28297;DHT22;62078;49.366;8.172;2022-09-02T06:15:54;23.80;48.70
28297;DHT22;62078;49.366;8.172;2022-09-02T06:18:19;23.80;48.50
28297;DHT22;62078;49.366;8.172;2022-09-02T06:20:47;23.90;48.40
28297;DHT22;62078;49.366;8.172;2022-09-02T06:23:13;24.00;48.30
28297;DHT22;62078;49.366;8.172;2022-09-02T06:25:41;24.00;48.10
28297;DHT22;62078;49.366;8.172;2022-09-02T06:28:08;24.10;48.00
28297;DHT22;62078;49.366;8.172;2022-09-02T06:30:36;24.10;47.90
28297;DHT22;62078;49.366;8.172;2022-09-02T06:33:02;24.20;48.10
28297;DHT22;62078;49.366;8.172;2022-09-02T06:35:29;24.20;47.90
28297;DHT22;62078;49.366;8.172;2022-09-02T06:37:57;24.30;47.80
28297;DHT22;62078;49.366;8.172;2022-09-02T06:40:23;24.40;47.80
28297;DHT22;62078;49.366;8.172;2022-09-02T06:42:49;24.50;47.60
28297;DHT22;62078;49.366;8.172;2022-09-02T06:45:15;24.50;47.50
28297;DHT22;62078;49.366;8.172;2022-09-02T06:47:40;24.50;47.30
28297;DHT22;62078;49.366;8.172;2022-09-02T06:50:07;24.60;47.30
28297;DHT22;62078;49.366;8.172;2022-09-02T06:52:32;24.60;47.20
28297;DHT22;62078;49.366;8.172;2022-09-02T06:54:59;24.70;47.00
28297;DHT22;62078;49.366;8.172;2022-09-02T06:57:24;24.80;46.80
28297;DHT22;62078;49.366;8.172;2022-09-02T06:59:50;24.80;46.60
28297;DHT22;62078;49.366;8.172;2022-09-02T07:02:16;24.80;46.50
28297;DHT22;62078;49.366;8.172;2022-09-02T07:04:42;24.90;46.30
28297;DHT22;62078;49.366;8.172;2022-09-02T07:07:26;25.00;46.20
28297;DHT22;62078;49.366;8.172;2022-09-02T07:09:52;25.10;45.90
28297;DHT22;62078;49.366;8.172;2022-09-02T07:12:20;25.10;45.90
28297;DHT22;62078;49.366;8.172;2022-09-02T07:14:45;25.20;45.70
28297;DHT22;62078;49.366;8.172;2022-09-02T07:17:13;25.20;45.40
28297;DHT22;62078;49.366;8.172;2022-09-02T07:19:43;25.30;45.30
28297;DHT22;62078;49.366;8.172;2022-09-02T07:22:09;25.30;45.20
28297;DHT22;62078;49.366;8.172;2022-09-02T07:24:35;25.40;45.00
28297;DHT22;62078;49.366;8.172;2022-09-02T07:27:02;25.40;44.80
28297;DHT22;62078;49.366;8.172;2022-09-02T07:29:28;25.40;44.80
28297;DHT22;62078;49.366;8.172;2022-09-02T07:31:53;25.50;44.70
28297;DHT22;62078;49.366;8.172;2022-09-02T07:34:20;25.50;44.50
28297;DHT22;62078;49.366;8.172;2022-09-02T07:36:47;25.60;44.30
28297;DHT22;62078;49.366;8.172;2022-09-02T07:39:14;25.60;44.20
28297;DHT22;62078;49.366;8.172;2022-09-02T07:41:42;25.70;44.20
28297;DHT22;62078;49.366;8.172;2022-09-02T07:44:08;25.60;44.10
28297;DHT22;62078;49.366;8.172;2022-09-02T07:46:35;25.60;44.00
28297;DHT22;62078;49.366;8.172;2022-09-02T07:49:04;25.60;44.00
28297;DHT22;62078;49.366;8.172;2022-09-02T07:51:31;25.60;43.90
28297;DHT22;62078;49.366;8.172;2022-09-02T07:53:58;25.70;44.00
28297;DHT22;62078;49.366;8.172;2022-09-02T07:56:24;25.70;43.90
28297;DHT22;62078;49.366;8.172;2022-09-02T07:58:50;25.70;43.90
28297;DHT22;62078;49.366;8.172;2022-09-02T08:01:18;25.70;43.80
28297;DHT22;62078;49.366;8.172;2022-09-02T08:03:45;25.70;43.80
28297;DHT22;62078;49.366;8.172;2022-09-02T08:06:12;25.70;43.70
28297;DHT22;62078;49.366;8.172;2022-09-02T08:08:39;25.70;43.70
28297;DHT22;62078;49.366;8.172;2022-09-02T08:11:05;25.70;43.80
28297;DHT22;62078;49.366;8.172;2022-09-02T08:13:31;25.70;43.70
28297;DHT22;62078;49.366;8.172;2022-09-02T08:15:57;25.70;43.80
28297;DHT22;62078;49.366;8.172;2022-09-02T08:18:23;25.70;43.70
28297;DHT22;62078;49.366;8.172;2022-09-02T08:20:49;25.70;43.80
28297;DHT22;62078;49.366;8.172;2022-09-02T08:23:15;25.70;43.80
28297;DHT22;62078;49.366;8.172;2022-09-02T08:25:41;25.70;43.80
28297;DHT22;62078;49.366;8.172;2022-09-02T08:28:08;25.70;43.80
28297;DHT22;62078;49.366;8.172;2022-09-02T08:30:34;25.70;43.90
28297;DHT22;62078;49.366;8.172;2022-09-02T08:32:59;25.70;43.90
28297;DHT22;62078;49.366;8.172;2022-09-02T08:35:25;25.70;44.00
28297;DHT22;62078;49.366;8.172;2022-09-02T08:37:51;25.70;44.00
28297;DHT22;62078;49.366;8.172;2022-09-02T08:40:22;25.70;44.00
28297;DHT22;62078;49.366;8.172;2022-09-02T08:42:55;25.70;44.00
28297;DHT22;62078;49.366;8.172;2022-09-02T08:45:35;25.70;44.10
28297;DHT22;62078;49.366;8.172;2022-09-02T08:48:21;25.70;44.20
28297;DHT22;62078;49.366;8.172;2022-09-02T08:50:57;25.70;44.20
28297;DHT22;62078;49.366;8.172;2022-09-02T08:53:31;25.70;44.30
28297;DHT22;62078;49.366;8.172;2022-09-02T08:56:00;25.70;44.30
28297;DHT22;62078;49.366;8.172;2022-09-02T08:58:32;25.70;44.30
28297;DHT22;62078;49.366;8.172;2022-09-02T09:04:25;25.70;44.30
28297;DHT22;62078;49.366;8.172;2022-09-02T09:20:10;25.60;44.10
28297;DHT22;62078;49.366;8.172;2022-09-02T09:22:40;25.60;44.00
28297;DHT22;62078;49.366;8.172;2022-09-02T09:25:11;25.60;43.90
28297;DHT22;62078;49.366;8.172;2022-09-02T09:27:38;25.60;43.90
28297;DHT22;62078;49.366;8.172;2022-09-02T09:30:06;25.60;43.70
28297;DHT22;62078;49.366;8.172;2022-09-02T09:32:40;25.60;43.60
28297;DHT22;62078;49.366;8.172;2022-09-02T09:35:12;25.60;43.50
28297;DHT22;62078;49.366;8.172;2022-09-02T09:37:43;25.60;43.50
28297;DHT22;62078;49.366;8.172;2022-09-02T09:40:31;25.60;43.40
28297;DHT22;62078;49.366;8.172;2022-09-02T09:45:40;25.50;43.30
28297;DHT22;62078;49.366;8.172;2022-09-02T09:53:31;25.50;43.10
28297;DHT22;62078;49.366;8.172;2022-09-02T09:55:59;25.50;43.10
28297;DHT22;62078;49.366;8.172;2022-09-02T09:58:34;25.50;43.10
28297;DHT22;62078;49.366;8.172;2022-09-02T10:01:21;25.50;43.10
28297;DHT22;62078;49.366;8.172;2022-09-02T10:12:00;25.40;42.80
28297;DHT22;62078;49.366;8.172;2022-09-02T10:14:47;25.40;43.40
28297;DHT22;62078;49.366;8.172;2022-09-02T10:17:30;25.40;42.60
28297;DHT22;62078;49.366;8.172;2022-09-02T10:20:16;25.40;42.60
28297;DHT22;62078;49.366;8.172;2022-09-02T15:34:29;25.20;33.80
28297;DHT22;62078;49.366;8.172;2022-09-02T15:36:55;25.20;33.80
28297;DHT22;62078;49.366;8.172;2022-09-02T15:39:22;25.20;34.20
28297;DHT22;62078;49.366;8.172;2022-09-02T15:41:48;25.20;33.90
28297;DHT22;62078;49.366;8.172;2022-09-02T15:44:18;25.20;33.50
28297;DHT22;62078;49.366;8.172;2022-09-02T15:46:44;25.20;33.50
28297;DHT22;62078;49.366;8.172;2022-09-02T15:49:12;25.20;33.50
28297;DHT22;62078;49.366;8.172;2022-09-02T15:51:41;25.20;33.60
28297;DHT22;62078;49.366;8.172;2022-09-02T15:54:11;25.20;33.70
28297;DHT22;62078;49.366;8.172;2022-09-02T15:56:38;25.20;33.50
28297;DHT22;62078;49.366;8.172;2022-09-02T15:59:10;25.20;33.50
28297;DHT22;62078;49.366;8.172;2022-09-02T16:01:38;25.20;33.70
28297;DHT22;62078;49.366;8.172;2022-09-02T16:04:05;25.20;33.60
28297;DHT22;62078;49.366;8.172;2022-09-02T16:06:33;25.20;33.50
28297;DHT22;62078;49.366;8.172;2022-09-02T16:09:01;25.20;33.80
28297;DHT22;62078;49.366;8.172;2022-09-02T16:11:27;25.20;33.70
28297;DHT22;62078;49.366;8.172;2022-09-02T16:13:53;25.20;33.60
28297;DHT22;62078;49.366;8.172;2022-09-02T16:16:19;25.20;33.30
28297;DHT22;62078;49.366;8.172;2022-09-02T16:18:50;25.20;33.40
28297;DHT22;62078;49.366;8.172;2022-09-02T16:21:16;25.20;33.60
28297;DHT22;62078;49.366;8.172;2022-09-02T16:23:42;25.20;33.50
28297;DHT22;62078;49.366;8.172;2022-09-02T16:26:24;25.20;33.80
28297;DHT22;62078;49.366;8.172;2022-09-02T16:28:51;25.20;33.50
28297;DHT22;62078;49.366;8.172;2022-09-02T16:31:19;25.20;33.10
28297;DHT22;62078;49.366;8.172;2022-09-02T16:33:56;25.10;33.20
28297;DHT22;62078;49.366;8.172;2022-09-02T16:36:23;25.10;33.20
28297;DHT22;62078;49.366;8.172;2022-09-02T16:38:49;25.20;33.40
28297;DHT22;62078;49.366;8.172;2022-09-02T16:41:28;25.10;33.50
28297;DHT22;62078;49.366;8.172;2022-09-02T16:43:59;25.10;33.70
28297;DHT22;62078;49.366;8.172;2022-09-02T16:46:27;25.20;33.60
28297;DHT22;62078;49.366;8.172;2022-09-02T16:48:53;25.10;33.60
28297;DHT22;62078;49.366;8.172;2022-09-02T16:51:20;25.10;33.60
28297;DHT22;62078;49.366;8.172;2022-09-02T16:53:46;25.10;34.10
28297;DHT22;62078;49.366;8.172;2022-09-02T16:56:13;25.10;34.20
28297;DHT22;62078;49.366;8.172;2022-09-02T16:58:39;25.10;34.20
28297;DHT22;62078;49.366;8.172;2022-09-02T17:01:07;25.10;34.10
28297;DHT22;62078;49.366;8.172;2022-09-02T17:03:36;25.10;34.10
28297;DHT22;62078;49.366;8.172;2022-09-02T17:06:02;25.10;34.00
28297;DHT22;62078;49.366;8.172;2022-09-02T17:08:28;25.10;34.00
28297;DHT22;62078;49.366;8.172;2022-09-02T17:11:18;25.10;34.10
28297;DHT22;62078;49.366;8.172;2022-09-02T17:13:49;25.10;34.90
28297;DHT22;62078;49.366;8.172;2022-09-02T17:16:15;25.10;35.40
28297;DHT22;62078;49.366;8.172;2022-09-02T17:18:41;25.00;36.50
28297;DHT22;62078;49.366;8.172;2022-09-02T17:21:18;25.00;37.20
28297;DHT22;62078;49.366;8.172;2022-09-02T17:23:44;25.00;37.10
28297;DHT22;62078;49.366;8.172;2022-09-02T17:26:10;25.10;37.50
28297;DHT22;62078;49.366;8.172;2022-09-02T17:28:36;25.00;37.70
28297;DHT22;62078;49.366;8.172;2022-09-02T17:31:15;25.00;37.90
28297;DHT22;62078;49.366;8.172;2022-09-02T17:33:41;25.00;38.00
28297;DHT22;62078;49.366;8.172;2022-09-02T17:36:07;25.00;38.30
28297;DHT22;62078;49.366;8.172;2022-09-02T17:38:33;25.00;38.20
28297;DHT22;62078;49.366;8.172;2022-09-02T17:40:59;25.00;38.60
28297;DHT22;62078;49.366;8.172;2022-09-02T17:43:43;25.00;38.50
28297;DHT22;62078;49.366;8.172;2022-09-02T17:46:09;25.00;38.40
28297;DHT22;62078;49.366;8.172;2022-09-02T17:48:35;25.00;38.40
28297;DHT22;62078;49.366;8.172;2022-09-02T17:51:00;25.00;38.50
28297;DHT22;62078;49.366;8.172;2022-09-02T17:53:27;25.00;38.60
28297;DHT22;62078;49.366;8.172;2022-09-02T17:58:42;24.90;38.80
28297;DHT22;62078;49.366;8.172;2022-09-02T18:01:12;25.00;39.20
28297;DHT22;62078;49.366;8.172;2022-09-02T18:06:14;24.90;39.50
28297;DHT22;62078;49.366;8.172;2022-09-02T18:11:12;24.90;39.90
28297;DHT22;62078;49.366;8.172;2022-09-02T18:16:49;24.90;39.90
28297;DHT22;62078;49.366;8.172;2022-09-02T18:27:26;24.90;39.90
28297;DHT22;62078;49.366;8.172;2022-09-02T18:30:06;24.90;39.90
28297;DHT22;62078;49.366;8.172;2022-09-02T18:35:46;24.80;39.60
28297;DHT22;62078;49.366;8.172;2022-09-02T18:38:32;24.80;39.40
28297;DHT22;62078;49.366;8.172;2022-09-02T18:41:28;24.80;39.40
28297;DHT22;62078;49.366;8.172;2022-09-02T18:46:30;24.80;39.40
28297;DHT22;62078;49.366;8.172;2022-09-02T18:49:00;24.80;39.50
28297;DHT22;62078;49.366;8.172;2022-09-02T18:54:14;24.80;39.70
28297;DHT22;62078;49.366;8.172;2022-09-02T18:57:06;24.90;40.20
28297;DHT22;62078;49.366;8.172;2022-09-02T19:02:33;24.90;40.00
28297;DHT22;62078;49.366;8.172;2022-09-02T19:05:10;24.90;40.50
28297;DHT22;62078;49.366;8.172;2022-09-02T19:07:37;24.90;40.40
28297;DHT22;62078;49.366;8.172;2022-09-02T19:10:21;24.90;40.60
28297;DHT22;62078;49.366;8.172;2022-09-02T19:12:47;24.80;40.20
28297;DHT22;62078;49.366;8.172;2022-09-02T19:15:13;24.90;40.40
28297;DHT22;62078;49.366;8.172;2022-09-02T19:17:40;24.90;40.60
28297;DHT22;62078;49.366;8.172;2022-09-02T19:20:07;24.90;40.70
28297;DHT22;62078;49.366;8.172;2022-09-02T19:22:37;24.80;40.60
28297;DHT22;62078;49.366;8.172;2022-09-02T19:25:07;24.80;40.80
28297;DHT22;62078;49.366;8.172;2022-09-02T19:27:36;24.80;41.00
28297;DHT22;62078;49.366;8.172;2022-09-02T19:30:29;24.90;41.00
28297;DHT22;62078;49.366;8.172;2022-09-02T19:33:04;24.80;41.10
28297;DHT22;62078;49.366;8.172;2022-09-02T19:35:31;24.90;41.10
28297;DHT22;62078;49.366;8.172;2022-09-02T19:37:59;24.80;41.00
28297;DHT22;62078;49.366;8.172;2022-09-02T19:40:28;24.80;41.20
28297;DHT22;62078;49.366;8.172;2022-09-02T19:42:59;24.90;41.00
28297;DHT22;62078;49.366;8.172;2022-09-02T19:45:31;24.90;41.60
28297;DHT22;62078;49.366;8.172;2022-09-02T19:48:00;24.80;41.20
28297;DHT22;62078;49.366;8.172;2022-09-02T19:50:28;24.80;41.30
28297;DHT22;62078;49.366;8.172;2022-09-02T19:52:54;24.80;41.00
28297;DHT22;62078;49.366;8.172;2022-09-02T19:55:20;24.80;41.40
28297;DHT22;62078;49.366;8.172;2022-09-02T19:57:46;24.80;41.80
28297;DHT22;62078;49.366;8.172;2022-09-02T20:00:13;24.90;42.10
28297;DHT22;62078;49.366;8.172;2022-09-02T20:02:39;24.80;42.20
28297;DHT22;62078;49.366;8.172;2022-09-02T20:05:06;24.80;42.60
28297;DHT22;62078;49.366;8.172;2022-09-02T20:07:33;24.80;43.00
28297;DHT22;62078;49.366;8.172;2022-09-02T20:09:59;24.80;42.80
28297;DHT22;62078;49.366;8.172;2022-09-02T20:12:25;24.80;42.70
28297;DHT22;62078;49.366;8.172;2022-09-02T20:14:52;24.80;42.90
28297;DHT22;62078;49.366;8.172;2022-09-02T20:17:19;24.80;43.00
28297;DHT22;62078;49.366;8.172;2022-09-02T20:19:47;24.80;43.20
28297;DHT22;62078;49.366;8.172;2022-09-02T20:22:14;24.80;42.80
28297;DHT22;62078;49.366;8.172;2022-09-02T20:24:40;24.80;42.80
28297;DHT22;62078;49.366;8.172;2022-09-02T20:51:55;24.80;42.20
28297;DHT22;62078;49.366;8.172;2022-09-02T21:02:49;24.80;42.20
28297;DHT22;62078;49.366;8.172;2022-09-02T21:05:30;24.70;42.40
28297;DHT22;62078;49.366;8.172;2022-09-02T21:08:08;24.70;42.40
28297;DHT22;62078;49.366;8.172;2022-09-02T21:10:42;24.70;42.50
28297;DHT22;62078;49.366;8.172;2022-09-02T21:13:25;24.80;42.50
28297;DHT22;62078;49.366;8.172;2022-09-02T21:15:55;24.70;42.40
28297;DHT22;62078;49.366;8.172;2022-09-02T21:19:26;24.80;42.30
28297;DHT22;62078;49.366;8.172;2022-09-02T21:21:45;24.70;42.40
28297;DHT22;62078;49.366;8.172;2022-09-02T21:27:58;24.80;42.60
28297;DHT22;62078;49.366;8.172;2022-09-02T21:30:12;24.70;42.40
28297;DHT22;62078;49.366;8.172;2022-09-02T21:32:53;24.70;42.40
28297;DHT22;62078;49.366;8.172;2022-09-02T21:37:52;24.70;42.30
28297;DHT22;62078;49.366;8.172;2022-09-02T21:40:20;24.70;42.30
28297;DHT22;62078;49.366;8.172;2022-09-02T21:45:38;24.70;42.40
28297;DHT22;62078;49.366;8.172;2022-09-02T21:51:18;24.70;42.30
28297;DHT22;62078;49.366;8.172;2022-09-02T21:59:48;24.70;42.20
28297;DHT22;62078;49.366;8.172;2022-09-02T22:02:58;24.60;42.20
28297;DHT22;62078;49.366;8.172;2022-09-02T22:05:35;24.60;42.30
28297;DHT22;62078;49.366;8.172;2022-09-02T22:13:41;24.70;42.30
28297;DHT22;62078;49.366;8.172;2022-09-02T22:16:34;24.60;42.90
28297;DHT22;62078;49.366;8.172;2022-09-02T22:19:05;24.60;42.30
28297;DHT22;62078;49.366;8.172;2022-09-02T22:24:13;24.70;42.40
28297;DHT22;62078;49.366;8.172;2022-09-02T22:26:50;24.60;42.30
28297;DHT22;62078;49.366;8.172;2022-09-02T22:31:47;24.60;43.00
28297;DHT22;62078;49.366;8.172;2022-09-02T22:34:15;24.60;42.40
28297;DHT22;62078;49.366;8.172;2022-09-02T22:36:53;24.70;42.40
28297;DHT22;62078;49.366;8.172;2022-09-02T22:39:29;24.70;42.40
28297;DHT22;62078;49.366;8.172;2022-09-02T22:45:10;24.70;42.40
28297;DHT22;62078;49.366;8.172;2022-09-02T22:48:03;24.70;42.40
28297;DHT22;62078;49.366;8.172;2022-09-02T22:50:57;24.70;42.40
28297;DHT22;62078;49.366;8.172;2022-09-02T22:53:42;24.60;42.30
28297;DHT22;62078;49.366;8.172;2022-09-02T22:56:10;24.60;42.30
28297;DHT22;62078;49.366;8.172;2022-09-02T22:58:59;24.60;42.30
28297;DHT22;62078;49.366;8.172;2022-09-02T23:01:52;24.60;42.30
28297;DHT22;62078;49.366;8.172;2022-09-02T23:04:27;24.60;42.40
28297;DHT22;62078;49.366;8.172;2022-09-02T23:06:53;24.70;42.40
28297;DHT22;62078;49.366;8.172;2022-09-02T23:09:31;24.70;42.40
28297;DHT22;62078;49.366;8.172;2022-09-02T23:12:45;24.60;42.40
28297;DHT22;62078;49.366;8.172;2022-09-02T23:20:07;24.60;42.40
28297;DHT22;62078;49.366;8.172;2022-09-02T23:23:13;24.60;42.30
28297;DHT22;62078;49.366;8.172;2022-09-02T23:25:48;24.60;42.40
28297;DHT22;62078;49.366;8.172;2022-09-02T23:36:50;24.60;42.40
28297;DHT22;62078;49.366;8.172;2022-09-02T23:41:56;24.60;42.30
28297;DHT22;62078;49.366;8.172;2022-09-02T23:44:26;24.60;42.40
28297;DHT22;62078;49.366;8.172;2022-09-02T23:58:13;24.60;42.20
